createdAt,value
2022-12-13T00:02:21.323Z,21.31
2022-12-13T00:05:45.146Z,21.43
2022-12-13T00:09:08.084Z,22.61
2022-12-13T00:12:29.865Z,22.69
2022-12-13T00:16:05.180Z,22.72
2022-12-13T00:19:27.337Z,22.31
2022-12-13T00:22:52.606Z,22.21
2022-12-13T00:26:19.406Z,22.58
2022-12-13T00:29:41.358Z,22.60
2022-12-13T00:33:03.414Z,22.64
2022-12-13T00:36:25.808Z,21.61
2022-12-13T00:39:47.599Z,21.23
2022-12-13T00:43:09.369Z,21.14
2022-12-13T00:46:32.054Z,21.14
2022-12-13T00:49:53.963Z,21.24
2022-12-13T00:53:15.904Z,21.92
2022-12-13T00:56:38.294Z,22.59
2022-12-13T01:00:00.172Z,21.89
2022-12-13T01:03:25.305Z,21.83
2022-12-13T01:06:49.773Z,20.90
2022-12-13T01:10:12.676Z,22.42
2022-12-13T01:13:36.338Z,22.31
2022-12-13T01:16:58.225Z,22.44
2022-12-13T01:20:20.173Z,21.17
2022-12-13T01:23:43.809Z,21.11
2022-12-13T01:27:05.689Z,22.35
2022-12-13T01:30:27.544Z,22.55
2022-12-13T01:33:50.087Z,22.48
2022-12-13T01:37:11.832Z,22.91
2022-12-13T01:40:38.449Z,22.35
2022-12-13T01:44:06.535Z,22.42
2022-12-13T01:47:50.698Z,22.61
2022-12-13T01:51:17.505Z,22.76
2022-12-13T01:54:47.017Z,22.58
2022-12-13T01:58:09.805Z,22.76
2022-12-13T02:01:32.110Z,22.64
2022-12-13T02:05:08.704Z,22.63
2022-12-13T02:08:31.713Z,22.57
2022-12-13T02:11:57.991Z,22.68
2022-12-13T02:15:21.179Z,22.50
2022-12-13T02:19:22.909Z,22.55
2022-12-13T02:22:55.094Z,22.71
2022-12-13T02:26:51.986Z,22.89
2022-12-13T02:30:33.534Z,22.56
2022-12-13T02:34:18.541Z,22.50
2022-12-13T02:38:04.157Z,22.56
2022-12-13T02:41:41.604Z,22.53
2022-12-13T02:45:20.906Z,22.31
2022-12-13T02:48:45.765Z,22.19
2022-12-13T02:52:12.611Z,22.31
2022-12-13T02:55:39.145Z,22.35
2022-12-13T02:59:11.456Z,22.35
2022-12-13T03:02:49.361Z,21.95
2022-12-13T03:06:41.295Z,22.41
2022-12-13T03:10:26.021Z,22.05
2022-12-13T03:14:00.280Z,22.17
2022-12-13T03:17:26.113Z,22.07
2022-12-13T03:20:57.601Z,22.17
2022-12-13T03:24:21.662Z,22.09
2022-12-13T03:27:43.692Z,21.99
2022-12-13T03:31:06.859Z,21.97
2022-12-13T03:34:43.581Z,22.14
2022-12-13T03:38:06.935Z,22.18
2022-12-13T03:41:32.110Z,22.12
2022-12-13T03:44:53.908Z,22.02
2022-12-13T03:48:22.394Z,22.07
2022-12-13T03:51:45.572Z,21.90
2022-12-13T03:55:07.965Z,21.94
2022-12-13T03:58:35.263Z,21.90
2022-12-13T04:01:59.058Z,22.23
2022-12-13T04:05:20.928Z,22.37
2022-12-13T04:08:42.832Z,22.25
2022-12-13T04:12:42.164Z,22.25
2022-12-13T04:16:07.688Z,22.28
2022-12-13T04:19:29.536Z,22.50
2022-12-13T04:22:51.404Z,22.59
2022-12-13T04:26:14.029Z,22.08
2022-12-13T04:29:36.087Z,22.59
2022-12-13T04:32:57.965Z,20.14
2022-12-13T04:36:31.622Z,19.88
2022-12-13T04:39:54.244Z,19.91
2022-12-13T04:43:22.930Z,22.34
2022-12-13T04:46:44.794Z,22.49
2022-12-13T04:50:07.124Z,22.48
2022-12-13T04:53:30.140Z,22.44
2022-12-13T04:56:51.931Z,22.41
2022-12-13T05:00:14.900Z,22.42
2022-12-13T05:03:37.523Z,22.46
2022-12-13T05:06:59.399Z,22.33
2022-12-13T05:10:35.730Z,22.38
2022-12-13T05:13:59.805Z,22.41
2022-12-13T05:17:22.173Z,22.49
2022-12-13T05:20:44.051Z,22.51
2022-12-13T05:24:06.920Z,22.49
2022-12-13T05:27:28.753Z,20.58
2022-12-13T05:30:50.470Z,19.87
2022-12-13T05:34:12.392Z,22.25
2022-12-13T05:37:35.667Z,22.43
2022-12-13T05:40:58.662Z,22.46
2022-12-13T05:44:20.557Z,22.45
2022-12-13T05:47:42.319Z,22.31
2022-12-13T05:51:10.945Z,22.29
2022-12-13T05:54:33.636Z,22.38
2022-12-13T05:57:55.431Z,22.44
2022-12-13T06:01:24.400Z,22.43
2022-12-13T06:04:46.301Z,22.51
2022-12-13T06:08:24.717Z,22.48
2022-12-13T06:11:48.275Z,22.57
2022-12-13T06:15:12.500Z,22.65
2022-12-13T06:18:44.545Z,22.61
2022-12-13T06:22:06.358Z,22.60
2022-12-13T06:25:30.796Z,22.61
2022-12-13T06:28:53.896Z,22.68
2022-12-13T06:32:16.082Z,22.68
2022-12-13T06:35:41.493Z,22.71
2022-12-13T06:39:05.805Z,22.68
2022-12-13T06:42:27.681Z,22.70
2022-12-13T06:45:50.054Z,22.65
2022-12-13T06:49:11.825Z,22.61
2022-12-13T06:52:34.119Z,22.63
2022-12-13T06:55:56.592Z,22.69
2022-12-13T06:59:18.373Z,22.67
2022-12-13T07:02:40.297Z,22.69
2022-12-13T07:06:12.375Z,22.64
2022-12-13T07:09:34.123Z,22.68
2022-12-13T07:12:56.455Z,22.72
2022-12-13T07:16:19.432Z,22.75
2022-12-13T07:19:41.224Z,22.74
2022-12-13T07:23:03.037Z,23.03
2022-12-13T07:26:25.441Z,22.91
2022-12-13T07:29:48.222Z,22.97
2022-12-13T07:33:10.486Z,22.91
2022-12-13T07:36:32.458Z,22.88
2022-12-13T07:39:59.430Z,22.78
2022-12-13T07:43:25.412Z,22.50
2022-12-13T07:46:47.316Z,22.45
2022-12-13T07:50:23.965Z,22.42
2022-12-13T07:53:47.164Z,22.40
2022-12-13T07:57:09.036Z,22.40
2022-12-13T08:00:31.358Z,22.40
2022-12-13T08:03:54.858Z,22.46
2022-12-13T08:07:16.992Z,22.44
2022-12-13T08:10:39.398Z,22.38
2022-12-13T08:14:01.289Z,22.31
2022-12-13T08:17:24.333Z,22.36
2022-12-13T08:20:46.090Z,22.36
2022-12-13T08:24:13.947Z,22.40
2022-12-13T08:27:37.509Z,22.45
2022-12-13T08:31:12.244Z,22.41
2022-12-13T08:34:34.515Z,22.34
2022-12-13T08:37:56.280Z,22.32
2022-12-13T08:41:23.439Z,22.29
2022-12-13T08:44:50.822Z,22.38
2022-12-13T08:48:14.238Z,22.39
2022-12-13T08:51:36.517Z,22.42
2022-12-13T08:54:58.323Z,22.44
2022-12-13T08:58:20.151Z,22.45
2022-12-13T09:01:41.988Z,22.43
2022-12-13T09:05:04.621Z,22.36
2022-12-13T09:08:26.535Z,22.42
2022-12-13T09:11:59.409Z,22.41
2022-12-13T09:15:23.095Z,22.44
2022-12-13T09:18:46.381Z,22.39
2022-12-13T09:22:17.819Z,21.89
2022-12-13T09:26:05.773Z,21.94
2022-12-13T09:29:28.053Z,22.21
2022-12-13T09:32:50.468Z,21.81
2022-12-13T09:36:16.739Z,22.01
2022-12-13T09:39:38.661Z,21.83
2022-12-13T09:43:12.812Z,21.92
2022-12-13T09:46:44.178Z,21.84
2022-12-13T09:50:38.190Z,21.86
2022-12-13T09:54:01.912Z,21.92
2022-12-13T09:57:32.540Z,21.97
2022-12-13T10:00:58.049Z,21.91
2022-12-13T10:04:20.170Z,21.98
2022-12-13T10:07:42.154Z,21.93
2022-12-13T10:11:04.403Z,21.88
2022-12-13T10:14:43.853Z,21.95
2022-12-13T10:18:09.805Z,21.92
2022-12-13T10:21:40.713Z,21.86
2022-12-13T10:25:06.028Z,21.91
2022-12-13T10:28:33.583Z,21.98
2022-12-13T10:31:55.535Z,21.98
2022-12-13T10:35:38.491Z,22.02
2022-12-13T10:39:03.166Z,22.05
2022-12-13T10:42:32.166Z,21.97
2022-12-13T10:46:01.722Z,21.97
2022-12-13T10:49:29.753Z,22.07
2022-12-13T10:52:54.836Z,22.09
2022-12-13T10:56:22.820Z,21.96
2022-12-13T10:59:49.923Z,21.96
2022-12-13T11:03:32.303Z,22.00
2022-12-13T11:06:54.210Z,21.89
2022-12-13T11:10:29.702Z,21.61
2022-12-13T11:13:55.099Z,21.82
2022-12-13T11:17:30.476Z,21.95
2022-12-13T11:21:01.669Z,21.96
2022-12-13T11:24:32.974Z,21.93
2022-12-13T11:28:26.159Z,21.98
2022-12-13T11:31:56.392Z,22.06
2022-12-13T11:35:58.632Z,22.14
2022-12-13T11:39:37.928Z,22.08
2022-12-13T11:43:26.568Z,22.15
2022-12-13T11:47:00.952Z,22.09
2022-12-13T11:50:40.636Z,22.06
2022-12-13T11:54:14.529Z,22.07
2022-12-13T11:57:51.073Z,22.10
2022-12-13T12:01:38.147Z,22.11
2022-12-13T12:05:08.186Z,22.13
2022-12-13T12:08:53.427Z,22.06
2022-12-13T12:12:33.314Z,22.07
2022-12-13T12:16:35.453Z,22.07
2022-12-13T12:19:59.105Z,22.09
2022-12-13T12:23:52.868Z,22.21
2022-12-13T12:27:33.333Z,22.23
2022-12-13T12:32:07.848Z,22.46
2022-12-13T12:35:54.248Z,22.45
2022-12-13T12:39:43.048Z,22.41
2022-12-13T12:43:40.688Z,22.40
2022-12-13T12:47:57.786Z,22.38
2022-12-13T12:51:57.827Z,22.32
2022-12-13T12:56:14.163Z,22.25
2022-12-13T12:59:44.790Z,22.29
2022-12-13T13:03:23.396Z,22.24
2022-12-13T13:07:01.378Z,22.08
2022-12-13T13:10:26.173Z,22.09
2022-12-13T13:14:06.857Z,22.06
2022-12-13T13:17:28.787Z,22.12
2022-12-13T13:21:29.300Z,22.07
2022-12-13T13:25:20.186Z,22.06
2022-12-13T13:28:42.073Z,22.28
2022-12-13T13:32:11.741Z,22.31
2022-12-13T13:35:37.536Z,22.05
2022-12-13T13:39:01.574Z,21.90
2022-12-13T13:42:32.186Z,21.95
2022-12-13T13:46:14.337Z,22.20
2022-12-13T13:49:49.972Z,22.19
2022-12-13T13:53:40.880Z,22.15
2022-12-13T13:57:52.216Z,22.11
2022-12-13T14:01:59.653Z,21.91
2022-12-13T14:06:02.334Z,22.02
2022-12-13T14:09:42.817Z,22.00
2022-12-13T14:13:58.712Z,22.02
2022-12-13T14:18:23.520Z,22.00
2022-12-13T14:22:27.989Z,22.11
2022-12-13T14:26:27.685Z,22.05
2022-12-13T14:29:58.111Z,21.98
2022-12-13T14:33:24.446Z,21.95
2022-12-13T14:36:59.862Z,22.18
2022-12-13T14:40:47.087Z,21.97
2022-12-13T14:44:24.856Z,21.89
2022-12-13T14:47:46.953Z,21.97
2022-12-13T14:51:28.654Z,21.93
2022-12-13T14:55:00.748Z,21.86
2022-12-13T14:58:22.564Z,21.86
2022-12-13T15:01:54.390Z,21.81
2022-12-13T15:05:28.963Z,21.89
2022-12-13T15:08:51.253Z,21.90
2022-12-13T15:12:24.465Z,22.12
2022-12-13T15:15:57.391Z,22.09
2022-12-13T15:19:30.287Z,21.94
2022-12-13T15:23:14.729Z,21.81
2022-12-13T15:26:47.655Z,21.82
2022-12-13T15:30:14.655Z,21.85
2022-12-13T15:33:47.987Z,21.94
2022-12-13T15:37:31.626Z,21.91
2022-12-13T15:40:53.763Z,21.88
2022-12-13T15:44:28.080Z,21.81
2022-12-13T15:47:52.124Z,21.84
2022-12-13T15:51:28.545Z,21.80
2022-12-13T15:54:59.270Z,21.75
2022-12-13T15:58:36.982Z,21.67
2022-12-13T16:01:59.512Z,21.64
2022-12-13T16:09:02.569Z,21.99
2022-12-13T16:12:35.066Z,22.21
2022-12-13T16:16:29.350Z,22.05
2022-12-13T16:19:59.660Z,22.46
2022-12-13T16:23:27.116Z,20.90
2022-12-13T16:26:50.404Z,20.48
2022-12-13T16:30:51.802Z,21.97
2022-12-13T16:34:14.555Z,21.98
2022-12-13T16:37:40.011Z,22.15
2022-12-13T16:41:10.586Z,22.15
2022-12-13T16:44:38.746Z,22.15
2022-12-13T16:48:01.648Z,22.33
2022-12-13T16:51:23.710Z,22.40
2022-12-13T16:54:45.679Z,22.24
2022-12-13T16:58:12.958Z,22.27
2022-12-13T17:01:34.984Z,22.21
2022-12-13T17:04:57.013Z,22.26
2022-12-13T17:08:18.794Z,22.26
2022-12-13T17:11:41.261Z,22.17
2022-12-13T17:15:04.283Z,22.46
2022-12-13T17:18:26.100Z,22.45
2022-12-13T17:21:48.074Z,22.46
2022-12-13T17:25:11.092Z,22.29
2022-12-13T17:28:33.215Z,22.35
2022-12-13T17:31:55.067Z,22.40
2022-12-13T17:35:18.476Z,22.24
2022-12-13T17:38:46.944Z,22.40
2022-12-13T17:42:09.409Z,22.17
2022-12-13T17:45:32.342Z,22.05
2022-12-13T17:48:54.152Z,22.02
2022-12-13T17:52:16.100Z,22.10
2022-12-13T17:55:39.791Z,22.07
2022-12-13T17:59:01.778Z,22.32
2022-12-13T18:02:23.659Z,22.23
2022-12-13T18:05:54.857Z,22.24
2022-12-13T18:09:16.839Z,22.27
2022-12-13T18:12:38.611Z,22.29
2022-12-13T18:16:09.981Z,22.07
2022-12-13T18:19:32.186Z,22.12
2022-12-13T18:22:53.972Z,22.14
2022-12-13T18:26:17.760Z,21.97
2022-12-13T18:29:42.689Z,22.09
2022-12-13T18:33:17.402Z,22.15
2022-12-13T18:36:42.235Z,21.82
2022-12-13T18:40:08.371Z,21.83
2022-12-13T18:43:30.171Z,21.80
2022-12-13T18:46:52.187Z,21.95
2022-12-13T18:50:14.244Z,21.94
2022-12-13T18:53:38.110Z,22.01
2022-12-13T18:56:59.951Z,21.88
2022-12-13T19:00:24.074Z,21.97
2022-12-13T19:03:48.059Z,21.94
2022-12-13T19:07:09.952Z,21.94
2022-12-13T19:10:31.808Z,21.83
2022-12-13T19:13:54.516Z,21.99
2022-12-13T19:17:16.350Z,22.11
2022-12-13T19:20:38.326Z,21.97
2022-12-13T19:24:01.325Z,22.02
2022-12-13T19:27:23.320Z,21.87
2022-12-13T19:30:46.735Z,21.81
2022-12-13T19:34:08.589Z,21.89
2022-12-13T19:37:30.321Z,21.81
2022-12-13T19:40:52.631Z,21.89
2022-12-13T19:44:14.466Z,22.09
2022-12-13T19:47:36.433Z,22.07
2022-12-13T19:51:04.087Z,21.52
2022-12-13T19:54:26.543Z,22.17
2022-12-13T19:57:48.541Z,22.07
2022-12-13T20:01:11.619Z,22.29
2022-12-13T20:04:33.466Z,22.26
2022-12-13T20:07:57.911Z,21.95
2022-12-13T20:11:23.118Z,21.94
2022-12-13T20:14:44.982Z,21.85
2022-12-13T20:18:06.839Z,21.91
2022-12-13T20:21:29.373Z,21.96
2022-12-13T20:24:51.410Z,21.90
2022-12-13T20:28:16.352Z,21.82
2022-12-13T20:31:40.378Z,21.96
2022-12-13T20:35:02.611Z,22.08
2022-12-13T20:38:24.480Z,22.08
2022-12-13T20:41:46.624Z,22.01
2022-12-13T20:45:09.780Z,22.22
2022-12-13T20:48:40.531Z,22.03
2022-12-13T20:52:02.471Z,22.18
2022-12-13T20:55:26.269Z,22.05
2022-12-13T20:58:48.034Z,22.09
2022-12-13T21:02:13.223Z,22.07
2022-12-13T21:05:35.091Z,22.05
2022-12-13T21:09:03.002Z,21.83
2022-12-13T21:12:24.905Z,21.73
2022-12-13T21:15:46.776Z,21.84
2022-12-13T21:19:12.831Z,21.82
2022-12-13T21:22:34.596Z,21.83
2022-12-13T21:25:56.450Z,21.84
2022-12-13T21:29:19.040Z,21.86
2022-12-13T21:32:40.803Z,21.91
2022-12-13T21:36:17.795Z,21.93
2022-12-13T21:39:39.602Z,21.93
2022-12-13T21:43:01.407Z,21.90
2022-12-13T21:46:47.874Z,21.92
2022-12-13T21:50:10.718Z,21.91
2022-12-13T21:53:33.286Z,21.89
2022-12-13T21:57:13.852Z,21.92
2022-12-13T22:00:36.939Z,21.82
2022-12-13T22:04:02.667Z,21.86
2022-12-13T22:07:33.577Z,21.82
2022-12-13T22:11:19.349Z,21.81
2022-12-13T22:14:43.128Z,21.85
2022-12-13T22:18:05.136Z,21.89
2022-12-13T22:21:27.061Z,21.90
2022-12-13T22:24:53.496Z,21.88
2022-12-13T22:28:16.679Z,21.86
2022-12-13T22:31:39.889Z,21.95
2022-12-13T22:35:01.869Z,21.87
2022-12-13T22:38:23.939Z,21.94
2022-12-13T22:41:47.918Z,21.87
2022-12-13T22:45:10.527Z,21.83
2022-12-13T22:48:32.871Z,21.86
2022-12-13T22:51:54.821Z,21.87
2022-12-13T22:55:16.879Z,21.87
2022-12-13T22:58:40.831Z,21.88
2022-12-13T23:02:03.815Z,22.21
2022-12-13T23:05:27.545Z,21.83
2022-12-13T23:08:56.546Z,21.76
2022-12-13T23:12:36.950Z,21.80
2022-12-13T23:15:58.778Z,21.81
2022-12-13T23:23:02.734Z,21.75
2022-12-13T23:26:28.118Z,21.78
2022-12-13T23:29:50.383Z,21.78
2022-12-13T23:33:12.198Z,21.78
2022-12-13T23:36:34.708Z,21.74
2022-12-13T23:39:56.481Z,21.74
2022-12-13T23:43:18.326Z,21.74
2022-12-13T23:46:40.243Z,21.83
2022-12-13T23:50:02.147Z,21.80
2022-12-13T23:53:24.286Z,21.75
2022-12-13T23:56:47.516Z,21.79
